Time;durP1;ratioP1;P1;durP2;ratioP2;P2;SDS_P1;SDS_P2;PMS_P1;PMS_P2;Temp;Humidity;BMP_temperature;BMP_pressure;BME280_temperature;BME280_humidity;BME280_pressure;Samples;Min_cycle;Max_cycle;Signal;HPM_P1;HPM_P2
2022/03/07 00:03:45;;;;;;;24.60;15.80;;;;;;;-1.18;61.02;100416.42;215138;1274;141933;-71
2022/03/07 00:08:49;;;;;;;39.00;21.10;;;;;;;-1.16;61.15;100412.87;215920;1274;142075;-71
2022/03/07 00:13:54;;;;;;;23.10;14.60;;;;;;;-1.14;61.24;100408.70;215963;1274;141475;-71
2022/03/07 00:18:58;;;;;;;34.40;16.20;;;;;;;-1.11;61.63;100396.92;215672;1274;141532;-73
2022/03/07 00:24:03;;;;;;;46.90;21.90;;;;;;;-1.08;61.50;100397.33;215913;1274;140581;-76
2022/03/07 00:29:11;;;;;;;49.70;23.90;;;;;;;-1.05;61.45;100401.55;215808;1274;140832;-74
2022/03/07 00:34:15;;;;;;;43.30;21.50;;;;;;;-1.01;61.80;100406.61;215939;1274;140294;-69
2022/03/07 00:39:20;;;;;;;36.30;20.10;;;;;;;-1.00;61.84;100407.63;213878;1274;140962;-69
2022/03/07 00:44:24;;;;;;;29.70;16.80;;;;;;;-1.00;61.89;100413.55;214660;1274;140485;-66
2022/03/07 00:49:28;;;;;;;31.30;17.80;;;;;;;-1.04;62.11;100418.05;214664;1274;140631;-69
2022/03/07 00:54:33;;;;;;;34.80;17.00;;;;;;;-1.07;62.30;100418.66;214566;1274;140203;-67
2022/03/07 00:59:37;;;;;;;33.00;17.20;;;;;;;-1.10;62.32;100416.55;214716;1274;141832;-72
2022/03/07 01:04:41;;;;;;;37.10;20.80;;;;;;;-1.10;62.65;100407.10;213994;1274;140660;-74
2022/03/07 01:09:45;;;;;;;32.00;19.00;;;;;;;-1.10;62.85;100403.42;213123;1274;140368;-73
2022/03/07 01:14:53;;;;;;;30.00;16.20;;;;;;;-1.12;62.95;100399.95;214476;1274;140908;-72
2022/03/07 01:19:56;;;;;;;32.10;17.20;;;;;;;-1.15;63.02;100390.31;213409;1274;141598;-69
2022/03/07 01:25:05;;;;;;;29.30;15.60;;;;;;;-1.15;63.59;100384.91;212787;1274;140672;-71
2022/03/07 01:30:10;;;;;;;40.80;21.60;;;;;;;-1.14;63.75;100378.89;214633;1275;142125;-70
2022/03/07 01:35:15;;;;;;;31.30;18.60;;;;;;;-1.06;63.44;100376.39;213602;1275;140223;-69
2022/03/07 01:40:20;;;;;;;38.40;21.00;;;;;;;-0.99;63.43;100375.45;213258;1276;140983;-69
2022/03/07 01:45:23;;;;;;;39.50;22.50;;;;;;;-0.96;63.77;100371.31;213761;1275;141628;-69
2022/03/07 01:50:28;;;;;;;35.80;20.00;;;;;;;-0.92;63.85;100364.67;213247;1276;141158;-70
2022/03/07 01:55:32;;;;;;;39.80;20.20;;;;;;;-0.93;63.77;100364.34;213761;1276;141244;-70
2022/03/07 02:00:36;;;;;;;40.60;20.70;;;;;;;-0.95;63.82;100359.88;214566;1276;141782;-71
2022/03/07 02:05:41;;;;;;;35.40;20.10;;;;;;;-0.95;63.85;100354.86;215003;1276;140207;-69
2022/03/07 02:10:45;;;;;;;37.00;19.80;;;;;;;-0.97;63.84;100353.41;213891;1275;140119;-70
2022/03/07 02:15:55;;;;;;;33.60;16.50;;;;;;;-0.98;64.07;100352.67;215835;1274;140232;-72
2022/03/07 02:21:08;;;;;;;33.60;16.80;;;;;;;-1.02;63.95;100346.35;215063;1276;205683;-71
2022/03/07 02:26:17;;;;;;;28.70;17.60;;;;;;;-1.04;64.22;100346.23;214581;1274;140007;-71
2022/03/07 02:31:22;;;;;;;23.70;13.00;;;;;;;-1.06;64.02;100338.84;215365;1274;583248;-71
2022/03/07 02:36:26;;;;;;;25.30;14.00;;;;;;;-1.07;64.02;100328.66;215340;1274;140788;-70
2022/03/07 02:41:31;;;;;;;19.70;12.90;;;;;;;-1.09;64.05;100331.02;213602;1274;141802;-69
2022/03/07 02:46:35;;;;;;;28.00;13.50;;;;;;;-1.14;64.06;100318.85;213521;1274;141103;-66
2022/03/07 02:51:40;;;;;;;21.90;11.50;;;;;;;-1.16;64.26;100320.49;215332;1274;140707;-68
2022/03/07 02:56:44;;;;;;;24.20;13.30;;;;;;;-1.17;64.23;100317.10;214075;1274;141000;-71
2022/03/07 03:01:49;;;;;;;22.70;12.20;;;;;;;-1.20;64.31;100322.40;213831;1276;140934;-66
2022/03/07 03:06:53;;;;;;;24.00;11.80;;;;;;;-1.21;64.45;100315.91;213967;1274;143581;-65
2022/03/07 03:11:57;;;;;;;26.70;13.10;;;;;;;-1.23;64.44;100316.49;214204;1274;142100;-65
2022/03/07 03:17:02;;;;;;;26.00;13.40;;;;;;;-1.24;64.56;100311.64;214377;1274;140020;-65
2022/03/07 03:22:07;;;;;;;27.90;13.20;;;;;;;-1.24;64.54;100317.79;214044;1275;140383;-65
2022/03/07 03:27:12;;;;;;;28.00;13.60;;;;;;;-1.18;64.48;100308.10;213692;1274;141121;-71
2022/03/07 03:32:16;;;;;;;30.60;13.80;;;;;;;-1.11;64.70;100321.93;213136;1274;140044;-71
2022/03/07 03:37:21;;;;;;;24.70;13.50;;;;;;;-1.08;64.98;100320.40;214591;1274;140726;-70
2022/03/07 03:42:25;;;;;;;26.60;14.60;;;;;;;-1.08;64.93;100324.48;213876;1274;140871;-66
2022/03/07 03:47:29;;;;;;;21.50;13.40;;;;;;;-1.09;65.11;100326.60;213934;1274;142080;-66
2022/03/07 03:52:34;;;;;;;23.00;13.40;;;;;;;-1.13;65.19;100322.75;215128;1274;140441;-73
2022/03/07 03:57:42;;;;;;;27.90;15.70;;;;;;;-1.15;65.13;100324.75;214412;1274;140605;-67
2022/03/07 04:02:47;;;;;;;27.20;13.60;;;;;;;-1.22;65.13;100331.67;214589;1274;141495;-66
2022/03/07 04:07:51;;;;;;;22.30;13.30;;;;;;;-1.29;65.18;100337.58;214989;1274;140256;-65
2022/03/07 04:12:58;;;;;;;17.20;10.50;;;;;;;-1.37;65.34;100344.13;214422;1275;141364;-68
2022/03/07 04:18:01;;;;;;;20.80;13.20;;;;;;;-1.46;65.46;100345.47;216004;1274;140271;-70
2022/03/07 04:23:05;;;;;;;18.40;14.00;;;;;;;-1.54;65.40;100347.65;215432;1276;142189;-70
2022/03/07 04:28:09;;;;;;;29.20;14.70;;;;;;;-1.65;65.51;100349.19;216081;1274;141538;-70
2022/03/07 04:33:13;;;;;;;26.10;15.10;;;;;;;-1.68;65.41;100342.13;216074;1274;141491;-68
2022/03/07 04:38:18;;;;;;;32.30;15.40;;;;;;;-1.73;65.50;100341.88;215949;1274;141196;-68
2022/03/07 04:43:22;;;;;;;24.50;14.90;;;;;;;-1.79;65.69;100342.23;215168;1274;142005;-67
2022/03/07 04:48:26;;;;;;;20.60;14.10;;;;;;;-1.87;65.71;100344.17;216055;1275;140826;-69
2022/03/07 04:53:31;;;;;;;29.60;15.40;;;;;;;-1.98;65.69;100349.55;214106;1274;141427;-69
2022/03/07 04:58:36;;;;;;;21.90;12.10;;;;;;;-2.10;66.07;100355.85;213767;1274;141212;-70
2022/03/07 05:03:41;;;;;;;24.10;13.20;;;;;;;-2.27;66.02;100348.93;213786;1274;141030;-71
2022/03/07 05:08:47;;;;;;;23.80;14.20;;;;;;;-2.46;66.10;100343.67;214236;1275;141118;-70
2022/03/07 05:13:51;;;;;;;24.90;11.30;;;;;;;-2.61;66.66;100337.17;214662;1274;141633;-68
2022/03/07 05:18:55;;;;;;;28.30;14.60;;;;;;;-2.72;66.98;100329.40;214579;1276;141814;-71
2022/03/07 05:23:59;;;;;;;28.70;12.70;;;;;;;-2.71;67.08;100324.45;213537;1274;141179;-71
2022/03/07 05:29:04;;;;;;;23.10;14.20;;;;;;;-2.68;67.43;100321.22;213422;1274;140618;-71
2022/03/07 05:34:08;;;;;;;22.70;12.90;;;;;;;-2.62;67.66;100321.73;214026;1274;140444;-73
2022/03/07 05:39:13;;;;;;;23.10;11.40;;;;;;;-2.57;67.90;100325.98;213265;1274;140984;-73
2022/03/07 05:44:18;;;;;;;23.80;13.40;;;;;;;-2.57;67.89;100325.36;213185;1274;141100;-72
2022/03/07 05:49:23;;;;;;;22.80;14.30;;;;;;;-2.57;68.25;100326.16;213478;1274;141167;-72
2022/03/07 05:54:27;;;;;;;20.50;11.70;;;;;;;-2.55;68.24;100322.23;213586;1274;152814;-69
2022/03/07 05:59:32;;;;;;;26.50;14.20;;;;;;;-2.56;68.51;100317.92;213123;1277;142318;-75
2022/03/07 06:04:38;;;;;;;23.00;13.30;;;;;;;-2.54;68.62;100321.05;213919;1274;140940;-70
2022/03/07 06:09:43;;;;;;;27.10;15.50;;;;;;;-2.49;68.68;100315.91;214347;1274;141451;-71
2022/03/07 06:14:49;;;;;;;28.60;14.10;;;;;;;-2.35;68.75;100317.76;213616;1274;143142;-70
2022/03/07 06:19:53;;;;;;;29.90;16.10;;;;;;;-2.18;68.83;100319.58;214654;1274;142379;-71
2022/03/07 06:24:58;;;;;;;23.90;15.10;;;;;;;-1.98;69.05;100324.18;215037;1274;141481;-69
2022/03/07 06:30:04;;;;;;;21.00;13.80;;;;;;;-1.67;69.40;100324.45;213175;1274;142251;-71
2022/03/07 06:35:09;;;;;;;21.70;14.40;;;;;;;-1.44;69.15;100313.02;215357;1274;142658;-70
2022/03/07 06:40:15;;;;;;;27.70;13.20;;;;;;;-1.20;69.08;100307.73;215788;1275;143502;-73
2022/03/07 06:45:19;;;;;;;28.00;14.10;;;;;;;-0.93;69.11;100305.00;215952;1274;141165;-75
2022/03/07 06:50:23;;;;;;;26.00;14.60;;;;;;;-0.79;68.86;100309.27;215557;1274;140530;-74
2022/03/07 06:55:28;;;;;;;31.40;14.20;;;;;;;-0.62;68.59;100314.55;215423;1274;141186;-75
2022/03/07 07:00:32;;;;;;;20.00;12.40;;;;;;;-0.47;68.74;100319.73;214498;1274;141600;-72
2022/03/07 07:05:37;;;;;;;19.10;13.10;;;;;;;-0.35;68.67;100317.89;215076;1276;141391;-75
2022/03/07 07:10:41;;;;;;;28.20;12.40;;;;;;;0.04;68.52;100318.00;214555;1274;142287;-75
2022/03/07 07:15:45;;;;;;;20.40;13.40;;;;;;;0.99;67.93;100316.66;214033;1274;141488;-76
2022/03/07 07:20:51;;;;;;;20.10;12.70;;;;;;;2.51;67.50;100319.29;213316;1275;142825;-75
2022/03/07 07:25:55;;;;;;;19.00;10.80;;;;;;;4.00;66.29;100324.45;214340;1274;140638;-75
2022/03/07 07:31:00;;;;;;;19.60;10.60;;;;;;;5.18;64.77;100324.11;214234;1274;140946;-74
2022/03/07 07:36:05;;;;;;;10.50;8.10;;;;;;;6.30;63.51;100324.58;214271;1277;140219;-75
2022/03/07 07:41:10;;;;;;;20.90;9.40;;;;;;;7.18;61.49;100325.73;214684;1274;140244;-76
2022/03/07 07:46:15;;;;;;;10.70;8.20;;;;;;;7.66;60.55;100327.23;213285;1274;163496;-72
2022/03/07 07:51:23;;;;;;;7.30;6.10;;;;;;;7.84;59.71;100324.70;213421;1274;141621;-73
2022/03/07 07:56:29;;;;;;;10.10;6.20;;;;;;;7.30;58.70;100321.16;213318;1274;141410;-73
2022/03/07 08:01:33;;;;;;;8.60;5.30;;;;;;;6.89;58.76;100315.83;213458;1274;140397;-72
2022/03/07 08:06:39;;;;;;;9.40;7.20;;;;;;;6.57;58.98;100321.76;213371;1274;141066;-72
2022/03/07 08:11:44;;;;;;;5.80;5.30;;;;;;;6.30;58.49;100322.80;213838;1274;162162;-74
2022/03/07 08:16:50;;;;;;;7.40;4.90;;;;;;;5.79;58.17;100319.05;214268;1274;140049;-71
2022/03/07 08:21:56;;;;;;;12.30;6.20;;;;;;;5.10;57.89;100324.98;213939;1274;140003;-71
2022/03/07 08:27:00;;;;;;;6.60;4.90;;;;;;;4.59;58.53;100320.88;214879;1274;140317;-85
2022/03/07 08:32:04;;;;;;;10.30;5.70;;;;;;;4.79;59.41;100314.95;214492;1274;139134;-71
2022/03/07 08:37:08;;;;;;;11.80;8.40;;;;;;;4.68;58.98;100315.27;215008;1273;161772;-79
2022/03/07 08:42:12;;;;;;;11.80;9.30;;;;;;;4.51;59.42;100314.31;215638;1274;144109;-76
2022/03/07 08:47:18;;;;;;;13.30;9.60;;;;;;;4.79;59.64;100307.59;215050;1274;140375;-77
2022/03/07 08:52:22;;;;;;;12.50;9.70;;;;;;;5.01;59.58;100307.95;214696;1274;142196;-81
2022/03/07 08:57:26;;;;;;;12.30;10.10;;;;;;;4.85;59.22;100305.43;215937;1274;140862;-82
2022/03/07 09:02:29;;;;;;;15.60;9.40;;;;;;;4.78;59.50;100300.84;215216;1274;140245;-82
2022/03/07 09:07:32;;;;;;;10.10;8.00;;;;;;;4.91;59.80;100293.84;215135;1274;140303;-77
2022/03/07 09:12:36;;;;;;;10.00;7.60;;;;;;;4.69;59.35;100296.84;215475;1274;140829;-72
2022/03/07 09:17:40;;;;;;;8.20;7.10;;;;;;;4.71;59.78;100294.67;214634;1274;140674;-78
2022/03/07 09:22:45;;;;;;;8.90;6.80;;;;;;;4.51;59.19;100297.20;214598;1274;140529;-73
2022/03/07 09:27:50;;;;;;;11.50;7.20;;;;;;;4.12;59.45;100303.56;214848;1274;141598;-72
2022/03/07 09:32:57;;;;;;;7.50;5.60;;;;;;;4.18;60.08;100301.68;214559;1274;141650;-75
2022/03/07 09:38:03;;;;;;;9.00;7.70;;;;;;;4.15;60.02;100297.98;214962;1274;140930;-72
2022/03/07 09:43:08;;;;;;;13.30;7.30;;;;;;;4.26;59.96;100297.94;214552;1274;141511;-72
2022/03/07 09:48:13;;;;;;;10.60;9.40;;;;;;;4.31;60.17;100300.49;213868;1274;140914;-79
2022/03/07 09:53:17;;;;;;;10.30;7.50;;;;;;;4.57;60.38;100294.73;213024;1274;140499;-75
2022/03/07 09:58:22;;;;;;;13.50;9.60;;;;;;;4.49;60.18;100295.36;213390;1274;141310;-79
2022/03/07 10:03:30;;;;;;;13.30;8.80;;;;;;;4.62;60.40;100290.33;214194;1274;139877;-75
2022/03/07 10:08:34;;;;;;;12.70;7.50;;;;;;;4.80;60.31;100298.55;213088;1277;140684;-79
2022/03/07 10:13:37;;;;;;;12.00;7.30;;;;;;;4.90;60.28;100301.14;213797;1274;140409;-73
2022/03/07 10:18:50;;;;;;;14.40;8.40;;;;;;;4.97;60.00;100305.27;214813;1274;140139;-83
2022/03/07 10:23:56;;;;;;;8.70;6.70;;;;;;;5.20;60.09;100309.15;213586;1274;139674;-77
2022/03/07 10:29:03;;;;;;;8.70;7.10;;;;;;;5.14;59.72;100318.16;213991;1274;150260;-74
2022/03/07 10:34:35;;;;;;;13.50;6.80;;;;;;;5.07;59.83;100321.81;213982;1272;140175;-77
2022/03/07 10:39:52;;;;;;;17.30;9.90;;;;;;;5.16;60.08;100311.52;214799;1274;139768;-75
2022/03/07 10:45:07;;;;;;;13.50;10.50;;;;;;;5.27;59.83;100310.92;214057;1275;139796;-76
2022/03/07 10:50:11;;;;;;;16.50;9.90;;;;;;;5.23;59.79;100301.90;214149;1274;143578;-80
2022/03/07 10:55:23;;;;;;;17.00;11.30;;;;;;;5.36;60.02;100299.05;214863;1274;139859;-83
2022/03/07 11:00:32;;;;;;;12.90;9.30;;;;;;;5.37;60.02;100290.11;214627;1274;141887;-80
2022/03/07 11:05:36;;;;;;;13.50;10.70;;;;;;;5.40;60.12;100283.92;215072;1274;140736;-82
2022/03/07 11:10:45;;;;;;;14.90;11.50;;;;;;;5.49;59.81;100286.54;214002;1274;221254;-76
2022/03/07 11:15:51;;;;;;;13.10;10.90;;;;;;;5.72;59.95;100274.91;215372;1274;141307;-79
2022/03/07 11:20:57;;;;;;;18.20;11.20;;;;;;;5.51;59.78;100272.71;213576;1274;140959;-75
2022/03/07 11:26:03;;;;;;;22.80;14.00;;;;;;;5.45;60.04;100262.70;214626;1274;140672;-77
2022/03/07 11:31:22;;;;;;;17.20;13.10;;;;;;;5.68;60.14;100260.23;214055;1272;140080;-78
2022/03/07 11:36:29;;;;;;;19.10;12.90;;;;;;;5.73;59.58;100260.23;213592;1274;140642;-79
2022/03/07 11:41:36;;;;;;;13.80;10.30;;;;;;;5.77;59.61;100259.74;214754;1274;139776;-77
2022/03/07 11:46:45;;;;;;;14.30;10.30;;;;;;;6.06;59.56;100253.55;213378;1274;142755;-76
2022/03/07 11:51:58;;;;;;;16.90;12.00;;;;;;;6.16;58.97;100248.16;213949;1274;142373;-85
2022/03/07 11:57:07;;;;;;;16.50;11.50;;;;;;;6.24;59.04;100242.92;213634;1274;141159;-80
2022/03/07 12:02:13;;;;;;;14.50;9.80;;;;;;;6.38;58.73;100241.64;213795;1274;210870;-77
2022/03/07 12:07:26;;;;;;;13.10;9.90;;;;;;;6.46;58.85;100242.77;214147;1274;234352;-79
2022/03/07 12:12:31;;;;;;;12.40;9.50;;;;;;;6.30;58.47;100240.89;214089;1274;139808;-84
2022/03/07 12:17:36;;;;;;;17.80;10.10;;;;;;;6.23;58.39;100233.02;214713;1274;140084;-83
2022/03/07 12:22:40;;;;;;;12.00;9.40;;;;;;;6.18;58.23;100239.13;214426;1274;141775;-81
2022/03/07 12:27:44;;;;;;;13.90;10.50;;;;;;;6.21;58.35;100237.20;214200;1272;140381;-83
2022/03/07 12:32:48;;;;;;;16.30;11.10;;;;;;;6.29;58.18;100238.03;214566;1274;140582;-83
2022/03/07 12:37:52;;;;;;;14.70;10.50;;;;;;;6.33;57.89;100236.48;213663;1274;140673;-76
2022/03/07 12:43:01;;;;;;;15.20;9.30;;;;;;;6.34;57.77;100241.61;214711;1274;140643;-82
2022/03/07 12:48:05;;;;;;;12.80;8.80;;;;;;;6.38;57.41;100243.06;214013;1274;140562;-83
2022/03/07 12:53:13;;;;;;;11.30;7.70;;;;;;;6.47;57.41;100239.17;215264;1274;140428;-83
2022/03/07 12:58:20;;;;;;;11.70;8.20;;;;;;;6.50;57.19;100232.11;213858;1274;140107;-80
2022/03/07 13:03:35;;;;;;;10.10;8.00;;;;;;;6.55;56.83;100227.33;215470;1274;140412;-84
2022/03/07 13:08:54;;;;;;;11.50;6.30;;;;;;;6.55;57.05;100229.86;215514;1274;141584;-83
2022/03/07 13:13:59;;;;;;;11.00;5.60;;;;;;;6.60;56.59;100226.42;214766;1274;140009;-76
2022/03/07 13:19:09;;;;;;;8.80;5.90;;;;;;;6.45;55.91;100231.23;215122;1274;141643;-75
2022/03/07 13:24:25;;;;;;;11.70;7.50;;;;;;;6.17;56.26;100223.49;215824;1274;142448;-73
2022/03/07 13:29:32;;;;;;;11.60;7.60;;;;;;;5.98;56.37;100222.39;215751;1274;140305;-74
2022/03/07 13:34:55;;;;;;;13.80;8.10;;;;;;;6.06;56.76;100215.13;216023;1272;140800;-71
2022/03/07 13:40:08;;;;;;;18.60;9.40;;;;;;;6.10;56.91;100215.31;215250;1274;139632;-73
2022/03/07 13:45:19;;;;;;;11.50;8.30;;;;;;;5.99;56.73;100210.84;214286;1274;140756;-73
2022/03/07 13:50:25;;;;;;;13.60;6.90;;;;;;;5.85;56.36;100214.75;213141;1274;161144;-73
2022/03/07 13:55:42;;;;;;;12.90;7.10;;;;;;;5.80;56.82;100217.77;213093;1274;141809;-68
2022/03/07 14:00:47;;;;;;;11.80;6.20;;;;;;;5.97;56.90;100220.35;213891;1274;225963;-72
2022/03/07 14:05:54;;;;;;;8.90;6.10;;;;;;;6.06;56.37;100228.78;213621;1274;140013;-72
2022/03/07 14:11:01;;;;;;;17.80;9.10;;;;;;;5.82;56.10;100230.60;213889;1274;140377;-75
2022/03/07 14:16:07;;;;;;;17.40;8.50;;;;;;;5.50;56.45;100231.79;213632;1274;139664;-68
2022/03/07 14:21:13;;;;;;;16.40;8.80;;;;;;;5.45;56.70;100230.73;214293;1274;139754;-69
2022/03/07 14:26:38;;;;;;;14.00;8.20;;;;;;;5.62;56.74;100224.93;213997;1274;140938;-73
2022/03/07 14:31:43;;;;;;;11.70;8.60;;;;;;;5.82;56.85;100221.92;213709;1274;571016;-74
2022/03/07 14:36:48;;;;;;;10.70;6.70;;;;;;;6.03;56.67;100223.38;213989;1274;140691;-74
2022/03/07 14:41:53;;;;;;;17.40;8.70;;;;;;;5.91;56.35;100221.15;212964;1274;140532;-67
2022/03/07 14:47:13;;;;;;;13.50;6.90;;;;;;;5.86;56.43;100214.25;214390;1274;141469;-75
2022/03/07 14:52:21;;;;;;;12.90;7.80;;;;;;;5.95;56.21;100208.69;213797;1274;140763;-72
2022/03/07 14:57:26;;;;;;;10.50;6.90;;;;;;;6.04;56.37;100198.17;214523;1274;141723;-69
2022/03/07 15:02:30;;;;;;;13.70;7.20;;;;;;;5.82;56.39;100202.96;213291;1274;141611;-72
2022/03/07 15:07:35;;;;;;;15.60;8.90;;;;;;;5.56;56.70;100212.38;215277;1274;140148;-73
2022/03/07 15:12:40;;;;;;;9.60;6.20;;;;;;;5.42;56.59;100214.84;215141;1273;140216;-72
2022/03/07 15:17:44;;;;;;;11.40;7.40;;;;;;;5.23;56.54;100215.05;214253;1274;139365;-72
2022/03/07 15:22:49;;;;;;;10.30;6.60;;;;;;;5.08;56.62;100211.05;215518;1274;141367;-71
2022/03/07 15:27:58;;;;;;;14.20;6.70;;;;;;;4.95;57.04;100209.80;215821;1274;141022;-75
2022/03/07 15:33:02;;;;;;;12.00;6.20;;;;;;;4.83;57.36;100215.08;215713;1274;141319;-76
2022/03/07 15:38:10;;;;;;;13.30;6.40;;;;;;;4.76;57.35;100215.55;215982;1274;142393;-74
2022/03/07 15:43:15;;;;;;;11.00;7.70;;;;;;;4.72;57.53;100217.71;214706;1274;140830;-72
2022/03/07 15:48:19;;;;;;;9.70;6.30;;;;;;;4.67;57.69;100220.27;214477;1274;142419;-74
2022/03/07 15:53:24;;;;;;;10.60;7.50;;;;;;;4.58;57.92;100223.05;214744;1274;141164;-70
2022/03/07 15:58:29;;;;;;;10.20;5.70;;;;;;;4.49;58.22;100230.62;214904;1274;139768;-71
2022/03/07 16:03:35;;;;;;;13.60;7.70;;;;;;;4.41;58.16;100230.46;214150;1273;139938;-73
2022/03/07 16:08:39;;;;;;;21.40;14.00;;;;;;;4.30;58.28;100230.02;214278;1274;139910;-74
2022/03/07 16:13:43;;;;;;;38.50;22.60;;;;;;;4.21;58.54;100233.94;213108;1274;141826;-71
2022/03/07 16:18:48;;;;;;;42.80;23.10;;;;;;;4.13;58.31;100240.18;213910;1274;141176;-72
2022/03/07 16:23:54;;;;;;;19.30;10.90;;;;;;;4.05;58.63;100246.68;213341;1274;140756;-71
2022/03/07 16:28:58;;;;;;;15.80;6.80;;;;;;;4.00;58.69;100253.48;214404;1274;140106;-73
2022/03/07 16:34:03;;;;;;;11.30;6.20;;;;;;;3.97;58.86;100264.91;213657;1274;140538;-70
2022/03/07 16:39:08;;;;;;;8.00;5.50;;;;;;;3.94;58.95;100268.11;213561;1274;141972;-67
2022/03/07 16:44:13;;;;;;;7.60;5.20;;;;;;;3.90;59.12;100272.39;214109;1274;140275;-70
2022/03/07 16:49:26;;;;;;;11.00;6.30;;;;;;;3.86;59.38;100274.99;213865;1275;140665;-70
2022/03/07 16:54:33;;;;;;;8.20;5.40;;;;;;;3.83;59.51;100280.85;213344;1274;141291;-68
2022/03/07 16:59:37;;;;;;;9.70;5.60;;;;;;;3.79;59.59;100288.10;214094;1274;141510;-68
2022/03/07 17:04:41;;;;;;;7.90;4.90;;;;;;;3.76;59.57;100295.02;214233;1274;140181;-71
2022/03/07 17:09:46;;;;;;;12.10;5.10;;;;;;;3.72;59.78;100303.34;215481;1274;139723;-69
2022/03/07 17:14:56;;;;;;;10.30;5.20;;;;;;;3.67;59.72;100312.51;214993;1274;140896;-64
2022/03/07 17:20:02;;;;;;;8.00;5.20;;;;;;;3.64;59.76;100315.96;215400;1274;140482;-68
2022/03/07 17:25:07;;;;;;;6.80;4.50;;;;;;;3.61;59.93;100320.90;215858;1274;141527;-70
2022/03/07 17:30:12;;;;;;;10.50;7.30;;;;;;;3.60;60.15;100320.88;214256;1274;141196;-72
2022/03/07 17:35:16;;;;;;;15.30;7.80;;;;;;;3.60;60.08;100325.49;215673;1274;140187;-77
2022/03/07 17:40:21;;;;;;;10.30;6.60;;;;;;;3.59;60.12;100331.06;215485;1274;141355;-74
2022/03/07 17:45:26;;;;;;;13.50;7.10;;;;;;;3.54;60.17;100332.52;215568;1274;141326;-70
2022/03/07 17:50:31;;;;;;;11.90;6.50;;;;;;;3.49;60.07;100328.82;215493;1274;141335;-71
2022/03/07 17:55:41;;;;;;;11.40;6.90;;;;;;;3.42;59.98;100331.19;214975;1274;139705;-72
2022/03/07 18:00:45;;;;;;;12.60;6.70;;;;;;;3.30;60.26;100331.34;215028;1274;141122;-71
2022/03/07 18:05:50;;;;;;;8.70;5.80;;;;;;;3.18;60.36;100333.30;215588;1274;141639;-70
2022/03/07 18:10:56;;;;;;;8.80;6.60;;;;;;;3.02;60.68;100335.09;214176;1274;139522;-68
2022/03/07 18:16:01;;;;;;;15.90;7.90;;;;;;;2.89;60.84;100333.92;214053;1274;139925;-67
2022/03/07 18:21:06;;;;;;;14.60;6.50;;;;;;;2.75;61.09;100338.05;213639;1274;139639;-69
2022/03/07 18:26:11;;;;;;;12.70;9.10;;;;;;;2.63;61.26;100337.07;214201;1274;141272;-69
2022/03/07 18:31:16;;;;;;;14.00;6.40;;;;;;;2.54;61.44;100350.73;213349;1274;139952;-68
2022/03/07 18:36:20;;;;;;;12.80;7.70;;;;;;;2.39;61.42;100358.50;214645;1274;140729;-68
2022/03/07 18:41:25;;;;;;;8.90;5.80;;;;;;;2.19;61.94;100359.63;214297;1274;140203;-70
2022/03/07 18:46:29;;;;;;;11.90;5.30;;;;;;;2.01;62.27;100361.45;213871;1274;139349;-75
2022/03/07 18:51:36;;;;;;;7.50;4.60;;;;;;;1.89;62.44;100364.78;213779;1274;141359;-71
2022/03/07 18:56:41;;;;;;;15.40;5.70;;;;;;;1.86;62.66;100367.45;213159;1274;140008;-71
2022/03/07 19:01:46;;;;;;;7.10;4.20;;;;;;;1.79;63.19;100367.09;214957;1274;140015;-70
2022/03/07 19:06:52;;;;;;;7.40;4.00;;;;;;;1.71;63.12;100372.33;213281;1276;140116;-69
2022/03/07 19:11:56;;;;;;;10.00;4.20;;;;;;;1.62;63.24;100371.91;213943;1275;141447;-65
2022/03/07 19:17:01;;;;;;;6.10;3.80;;;;;;;1.52;63.44;100374.86;214387;1274;140126;-71
2022/03/07 19:22:04;;;;;;;10.30;4.60;;;;;;;1.42;63.72;100382.63;214486;1274;140016;-67
2022/03/07 19:27:09;;;;;;;6.60;4.00;;;;;;;1.30;63.89;100392.58;214981;1274;139664;-66
2022/03/07 19:32:14;;;;;;;10.70;4.40;;;;;;;1.19;63.95;100401.80;215943;1274;140807;-67
2022/03/07 19:37:18;;;;;;;12.10;5.90;;;;;;;1.12;64.27;100404.44;215821;1274;141024;-68
2022/03/07 19:42:22;;;;;;;11.50;5.80;;;;;;;1.11;64.12;100417.13;215764;1274;141726;-68
2022/03/07 19:47:29;;;;;;;10.70;5.80;;;;;;;1.12;64.11;100419.92;216106;1274;141363;-70
2022/03/07 19:52:33;;;;;;;13.70;5.50;;;;;;;1.11;64.67;100424.73;215873;1274;141011;-71
2022/03/07 19:57:37;;;;;;;15.50;5.90;;;;;;;1.10;64.76;100424.80;216109;1274;141475;-68
2022/03/07 20:02:43;;;;;;;9.90;4.10;;;;;;;1.00;64.63;100439.05;214204;1274;139721;-67
2022/03/07 20:07:47;;;;;;;16.00;4.60;;;;;;;0.85;64.91;100444.69;214172;1274;141261;-67
2022/03/07 20:12:52;;;;;;;9.50;3.90;;;;;;;0.75;65.05;100448.48;214324;1276;140149;-66
2022/03/07 20:17:57;;;;;;;6.80;4.50;;;;;;;0.66;65.68;100448.88;214493;1275;139552;-68
2022/03/07 20:23:01;;;;;;;10.60;4.90;;;;;;;0.57;65.68;100459.02;215396;1274;139464;-71
2022/03/07 20:28:07;;;;;;;8.40;5.20;;;;;;;0.47;65.94;100465.69;213083;1274;140708;-69
2022/03/07 20:33:11;;;;;;;13.60;6.50;;;;;;;0.43;65.94;100475.27;214326;1274;139907;-67
2022/03/07 20:38:16;;;;;;;11.10;4.60;;;;;;;0.40;66.20;100480.48;214634;1274;143017;-64
2022/03/07 20:43:22;;;;;;;10.10;4.90;;;;;;;0.34;66.49;100481.77;213903;1274;141423;-67
2022/03/07 20:48:27;;;;;;;17.50;7.30;;;;;;;0.30;66.69;100477.84;213717;1274;141257;-68
2022/03/07 20:53:31;;;;;;;7.90;4.90;;;;;;;0.28;67.10;100485.70;213191;1274;142077;-68
2022/03/07 20:58:41;;;;;;;11.40;6.60;;;;;;;0.21;67.04;100486.52;213154;1274;140980;-66
2022/03/07 21:03:45;;;;;;;16.10;5.30;;;;;;;0.09;67.41;100491.57;214453;1274;140642;-68
2022/03/07 21:08:51;;;;;;;11.70;6.10;;;;;;;-0.04;67.52;100499.86;214043;1274;142666;-65
2022/03/07 21:13:57;;;;;;;12.10;5.00;;;;;;;-0.18;67.71;100490.84;213517;1274;141521;-67
2022/03/07 21:19:01;;;;;;;8.20;4.60;;;;;;;-0.20;67.70;100491.40;214292;1274;141722;-67
2022/03/07 21:24:05;;;;;;;8.60;4.60;;;;;;;-0.16;68.30;100493.53;213200;1274;142394;-67
2022/03/07 21:29:12;;;;;;;11.90;5.70;;;;;;;-0.19;68.49;100501.16;213640;1274;141036;-68
2022/03/07 21:34:18;;;;;;;13.30;5.50;;;;;;;-0.24;68.68;100500.41;214524;1274;139901;-69
2022/03/07 21:39:23;;;;;;;13.70;5.60;;;;;;;-0.27;68.64;100504.20;216005;1274;141001;-68
2022/03/07 21:44:29;;;;;;;19.70;6.60;;;;;;;-0.33;68.52;100503.54;215992;1273;141133;-70
2022/03/07 21:49:34;;;;;;;16.40;6.50;;;;;;;-0.32;68.19;100507.48;215912;1274;141584;-68
2022/03/07 21:54:38;;;;;;;11.70;6.20;;;;;;;-0.32;68.30;100505.88;214984;1274;142288;-72
2022/03/07 21:59:43;;;;;;;17.90;10.10;;;;;;;-0.37;68.42;100506.84;216077;1274;140862;-69
2022/03/07 22:04:52;;;;;;;12.00;6.20;;;;;;;-0.49;68.36;100509.01;213416;1274;141453;-68
2022/03/07 22:09:56;;;;;;;20.50;8.30;;;;;;;-0.61;68.37;100513.10;214007;1273;141394;-73
2022/03/07 22:15:01;;;;;;;15.70;8.20;;;;;;;-0.71;68.64;100515.27;213394;1274;142221;-71
2022/03/07 22:20:06;;;;;;;16.50;8.00;;;;;;;-0.79;68.90;100510.66;213657;1274;141802;-66
2022/03/07 22:25:12;;;;;;;13.60;6.00;;;;;;;-0.80;69.14;100516.70;213622;1274;142559;-70
2022/03/07 22:30:16;;;;;;;20.20;8.30;;;;;;;-0.78;69.55;100512.62;213117;1274;141843;-67
2022/03/07 22:35:21;;;;;;;16.10;8.20;;;;;;;-0.74;69.87;100509.64;213878;1274;141693;-69
2022/03/07 22:40:26;;;;;;;18.30;8.40;;;;;;;-0.74;69.96;100508.39;212963;1274;140814;-67
2022/03/07 22:45:30;;;;;;;10.90;5.60;;;;;;;-0.78;70.18;100511.56;213712;1274;141357;-71
2022/03/07 22:50:34;;;;;;;11.70;5.70;;;;;;;-0.80;70.14;100513.55;214173;1274;140901;-67
2022/03/07 22:55:38;;;;;;;12.40;6.00;;;;;;;-0.82;70.46;100517.94;213530;1274;140466;-67
2022/03/07 23:00:42;;;;;;;12.80;5.90;;;;;;;-0.90;70.53;100516.59;214652;1274;140433;-67